Pettit, Texas
Current Conditions -  °F | °C
As of 8:53 AM on Monday 24 Nov 2014 (Local Time) from KLBB Reporting Station
Clear Clear  
Wind Chill: 30°   Ceiling: Unl
Heat Index: 34°   Visibility: 10mi
Dew Point: 28°   Wind: 5mph
Humidity: 79%   Direction: 250°WSW
Pressure: 30.06"   Gusts: NA
Location:  33.6122°N, 102.39°W
Report Text: KLBB 241453Z 25004KT 10SM CLR 01/M02 A3006 RMK AO2 SLP182 T00111022 53013
Loading
Personal Weather Stations






























Interactive Weather Map New forecast layout! Learn more

10-Day Weather Forecast

Advertisements
Track Severe Weather on mobile